HomeShort term forecast

Short term forecast

Graphical weather forecast for the next 48 hours for Montreal:
Short term forecast
This weather forecast is automatically refreshed every 3 hours.

Hourly Experimental Forecast for the next 48 hours

Overall summary: Mostly cloudy throughout the day.

 Date & Hour   Temp   Feel   Baro   Hum   Speed & Bearing   Wind Gust   Precip.%   Precip.   Visibility   Cloud cover   Conditions 
 23/07/2018 - 12:00  29.1°C  31.7°C  1019.3 hPa  63%  15.5 km/h   27.3 km/h  4%  0.03 mm/h  16.1km  86%  Mostly Cloudy 
 23/07/2018 - 13:00  29.9°C  32.6°C  1019.0 hPa  59%  17.2 km/h   28.0 km/h  6%  0.07 mm/h  16.1km  86%  Mostly Cloudy 
 23/07/2018 - 14:00  30.5°C  33.1°C  1018.9 hPa  57%  18.2 km/h   28.3 km/h  9%  0.15 mm/h  16.1km  84%  Mostly Cloudy 
 23/07/2018 - 15:00  30.7°C  33.6°C  1018.6 hPa  57%  20.3 km/h   33.0 km/h  11%  0.19 mm/h  16.1km  88%  Mostly Cloudy 
 23/07/2018 - 16:00  29.9°C  32.9°C  1018.6 hPa  61%  23.9 km/h   44.7 km/h  17%  0.31 mm/h  16.1km  94%  Overcast 
 23/07/2018 - 17:00  29.0°C  32.0°C  1018.4 hPa  66%  22.4 km/h   42.2 km/h  17%  0.32 mm/h  16.1km  90%  Mostly Cloudy 
 23/07/2018 - 18:00  28.4°C  31.0°C  1018.4 hPa  68%  22.0 km/h   43.8 km/h  13%  0.19 mm/h  16.1km  77%  Mostly Cloudy 
 23/07/2018 - 19:00  27.4°C  29.8°C  1018.6 hPa  72%  20.5 km/h   43.5 km/h  11%  0.06 mm/h  16.1km  81%  Mostly Cloudy 
 23/07/2018 - 20:00  26.3°C  28.1°C  1018.8 hPa  76%  20.0 km/h   45.1 km/h  10%  0.02 mm/h  16.1km  89%  Mostly Cloudy 
 23/07/2018 - 21:00  25.5°C  26.2°C  1019.2 hPa  80%  19.1 km/h   45.5 km/h  12%  0.02 mm/h  16.1km  84%  Mostly Cloudy 
 23/07/2018 - 22:00  25.1°C  25.7°C  1019.6 hPa  81%  18.0 km/h   43.5 km/h  8%  0.05 mm/h  16.1km  80%  Mostly Cloudy 
 23/07/2018 - 23:00  24.7°C  25.3°C  1019.8 hPa  82%  16.7 km/h   41.3 km/h  6%  0.05 mm/h  16.1km  83%  Mostly Cloudy 
 24/07/2018 - 00:00  24.4°C  25.1°C  1020.0 hPa  82%  16.1 km/h   37.7 km/h  5%  0.10 mm/h  16.1km  76%  Mostly Cloudy 
 24/07/2018 - 01:00  23.9°C  24.5°C  1020.1 hPa  84%  16.6 km/h   41.7 km/h  5%  0.14 mm/h  16.1km  92%  Mostly Cloudy 
 24/07/2018 - 02:00  23.7°C  24.4°C  1020.0 hPa  84%  16.7 km/h   41.7 km/h  5%  0.17 mm/h  16.1km  94%  Overcast 
 24/07/2018 - 03:00  23.3°C  24.0°C  1020.0 hPa  85%  16.4 km/h   40.7 km/h  5%  0.14 mm/h  16.1km  94%  Overcast 
 24/07/2018 - 04:00  23.0°C  23.6°C  1020.0 hPa  86%  16.4 km/h   39.2 km/h  4%  0.09 mm/h  16.1km  93%  Mostly Cloudy 
 24/07/2018 - 05:00  22.8°C  23.4°C  1020.0 hPa  87%  16.4 km/h   38.1 km/h  4%  0.06 mm/h  16.1km  90%  Mostly Cloudy 
 24/07/2018 - 06:00  22.8°C  23.4°C  1020.1 hPa  87%  17.0 km/h   37.6 km/h  5%  0.06 mm/h  16.1km  84%  Mostly Cloudy 
 24/07/2018 - 07:00  23.3°C  23.9°C  1020.3 hPa  84%  18.2 km/h   37.5 km/h  4%  0.06 mm/h  16.1km  77%  Mostly Cloudy 
 24/07/2018 - 08:00  24.1°C  24.7°C  1020.3 hPa  81%  19.7 km/h   37.6 km/h  4%  0.07 mm/h  16.1km  56%  Partly Cloudy 
 24/07/2018 - 09:00  25.1°C  25.6°C  1020.3 hPa  77%  21.0 km/h   38.1 km/h  4%  0.06 mm/h  16.1km  63%  Mostly Cloudy 
 24/07/2018 - 10:00  25.7°C  26.3°C  1020.2 hPa  74%  21.7 km/h   38.8 km/h  6%  0.08 mm/h  16.1km  78%  Mostly Cloudy 
 24/07/2018 - 11:00  26.6°C  28.3°C  1020.1 hPa  71%  21.8 km/h   39.2 km/h  8%  0.16 mm/h  16.1km  88%  Mostly Cloudy 
 24/07/2018 - 12:00  27.4°C  29.4°C  1019.6 hPa  68%  21.7 km/h   39.4 km/h  10%  0.29 mm/h  16.1km  90%  Mostly Cloudy 
 24/07/2018 - 13:00  28.4°C  30.6°C  1019.0 hPa  64%  20.9 km/h   39.3 km/h  14%  0.47 mm/h  16.1km  94%  Overcast 
 24/07/2018 - 14:00  29.3°C  31.8°C  1018.4 hPa  61%  19.8 km/h   37.1 km/h  15%  0.63 mm/h  16.1km  95%  Overcast 
 24/07/2018 - 15:00  29.9°C  32.6°C  1017.9 hPa  60%  18.5 km/h   30.6 km/h  14%  0.68 mm/h  16.1km  97%  Overcast 
 24/07/2018 - 16:00  29.8°C  32.6°C  1017.3 hPa  61%  17.1 km/h   22.0 km/h  16%  0.68 mm/h  16.1km  98%  Overcast 
 24/07/2018 - 17:00  29.1°C  31.8°C  1017.1 hPa  64%  14.8 km/h   15.8 km/h  17%  0.68 mm/h  16.1km  99%  Overcast 
 24/07/2018 - 18:00  28.3°C  30.8°C  1016.9 hPa  67%  12.3 km/h   13.5 km/h  19%  0.74 mm/h  15.9km  94%  Possible Light Rain 
 24/07/2018 - 19:00  27.5°C  29.8°C  1016.9 hPa  71%  11.0 km/h   13.5 km/h  20%  0.79 mm/h  16.1km  86%  Possible Light Rain 
 24/07/2018 - 20:00  26.4°C  28.2°C  1017.0 hPa  75%  10.8 km/h   15.9 km/h  20%  0.74 mm/h  16.1km  79%  Possible Light Rain 
 24/07/2018 - 21:00  25.6°C  26.3°C  1017.0 hPa  77%  11.5 km/h   23.1 km/h  16%  0.50 mm/h  15.9km  72%  Mostly Cloudy 
 24/07/2018 - 22:00  25.2°C  25.7°C  1016.9 hPa  77%  13.6 km/h   32.9 km/h  12%  0.30 mm/h  14.5km  65%  Mostly Cloudy 
 24/07/2018 - 23:00  24.7°C  25.2°C  1016.7 hPa  77%  16.0 km/h   39.0 km/h  10%  0.24 mm/h  13.6km  58%  Partly Cloudy 
 25/07/2018 - 00:00  24.3°C  24.8°C  1016.6 hPa  78%  16.5 km/h   38.2 km/h  6%  0.13 mm/h  13.7km  54%  Partly Cloudy 
 25/07/2018 - 01:00  23.7°C  24.2°C  1016.4 hPa  80%  16.1 km/h   34.0 km/h  4%  0.03 mm/h  14.4km  53%  Partly Cloudy 
 25/07/2018 - 02:00  23.3°C  23.8°C  1016.1 hPa  81%  15.8 km/h   31.0 km/h  4%  0.02 mm/h  15.7km  54%  Partly Cloudy 
 25/07/2018 - 03:00  22.9°C  23.4°C  1015.7 hPa  82%  16.0 km/h   31.4 km/h  3%  0.01 mm/h  16.1km  51%  Partly Cloudy 
 25/07/2018 - 04:00  22.5°C  23.0°C  1015.2 hPa  84%  16.4 km/h   33.1 km/h  0%  --  16.1km  49%  Partly Cloudy 
 25/07/2018 - 05:00  22.3°C  22.7°C  1014.8 hPa  85%  17.1 km/h   35.1 km/h  0%  --  16.1km  46%  Partly Cloudy 
 25/07/2018 - 06:00  22.3°C  22.9°C  1014.5 hPa  85%  18.4 km/h   36.7 km/h  3%  0.02 mm/h  16.1km  46%  Partly Cloudy 
 25/07/2018 - 07:00  22.8°C  23.4°C  1014.4 hPa  84%  19.9 km/h   38.5 km/h  6%  0.13 mm/h  16.1km  47%  Partly Cloudy 
 25/07/2018 - 08:00  23.6°C  24.1°C  1014.2 hPa  82%  21.0 km/h   40.0 km/h  12%  0.24 mm/h  16.1km  50%  Partly Cloudy 
 25/07/2018 - 09:00  23.9°C  24.5°C  1014.0 hPa  81%  22.1 km/h   41.1 km/h  16%  0.34 mm/h  16.1km  58%  Partly Cloudy 
 25/07/2018 - 10:00  24.5°C  25.0°C  1013.6 hPa  79%  22.7 km/h   42.0 km/h  19%  0.23 mm/h  16.1km  69%  Mostly Cloudy 
 25/07/2018 - 11:00  25.0°C  25.6°C  1013.1 hPa  77%  23.2 km/h   43.1 km/h  18%  0.18 mm/h  16.1km  77%  Mostly Cloudy 
Test

 

Past weather and reports

Past weatherFind in this section the past weather conditions, weather archive, graphics, reports and statistics.

Current conditions

Current weather condition for MontrealAll you need to know about the current weather conditions for Montreal. Weather data is updated every 10 minutes.

Weather forecast

Current Montreal weatherSince 2004, celinium.com website has provided accurate weather forecast for Montreal's island.